Time;durP1;ratioP1;P1;durP2;ratioP2;P2;SDS_P1;SDS_P2;PMS_P1;PMS_P2;Temp;Humidity;BMP_temperature;BMP_pressure;BME280_temperature;BME280_humidity;BME280_pressure;Samples;Min_cycle;Max_cycle;Signal;HPM_P1;HPM_P2
2023/06/07 00:01:13;;;;;;;;;;;;;;;-140.72;100.00;52504.50;6246386;23;19992;-72
2023/06/07 00:03:38;;;;;;;;;;;;;;;-140.72;100.00;52534.94;6246487;23;19911;-71
2023/06/07 00:06:05;;;;;;;;;;;;;;;-140.72;100.00;52512.59;6245340;23;20347;-71
2023/06/07 00:08:30;;;;;;;;;;;;;;;-140.72;100.00;52522.75;6217843;23;19912;-71
2023/06/07 00:10:56;;;;;;;;;;;;;;;-140.72;100.00;52508.56;6245594;23;20342;-71
2023/06/07 00:13:21;;;;;;;;;;;;;;;-140.72;100.00;52512.59;6245895;23;19919;-71
2023/06/07 00:15:47;;;;;;;;;;;;;;;-140.72;100.00;52506.53;6246616;23;19915;-71
2023/06/07 00:18:14;;;;;;;;;;;;;;;-140.72;100.00;52526.81;6246634;23;19926;-71
2023/06/07 00:20:40;;;;;;;;;;;;;;;-140.72;100.00;52486.22;6246636;23;19911;-71
2023/06/07 00:23:05;;;;;;;;;;;;;;;-140.72;100.00;52510.59;6246078;23;19933;-71
2023/06/07 00:25:31;;;;;;;;;;;;;;;-140.72;100.00;52524.78;6246399;23;19912;-71
2023/06/07 00:27:56;;;;;;;;;;;;;;;-140.72;100.00;52520.72;6219805;23;19912;-71
2023/06/07 00:30:21;;;;;;;;;;;;;;;-140.72;100.00;52492.31;6245703;23;19954;-72
2023/06/07 00:32:47;;;;;;;;;;;;;;;-140.72;100.00;52474.06;6218848;23;19919;-71
2023/06/07 00:35:12;;;;;;;;;;;;;;;-140.72;100.00;52512.59;6245862;23;19922;-71
2023/06/07 00:37:38;;;;;;;;;;;;;;;-140.72;100.00;52524.78;6246362;23;19911;-71
2023/06/07 00:40:05;;;;;;;;;;;;;;;-140.72;100.00;52528.84;6246268;23;19916;-71
2023/06/07 00:42:30;;;;;;;;;;;;;;;-140.72;100.00;52524.78;6218619;23;19915;-71
2023/06/07 00:44:55;;;;;;;;;;;;;;;-140.72;100.00;52504.50;6246106;23;19943;-71
2023/06/07 00:47:20;;;;;;;;;;;;;;;-140.72;100.00;52516.66;6245739;23;20312;-71
2023/06/07 00:49:47;;;;;;;;;;;;;;;-140.72;100.00;52506.53;6245364;23;20272;-71
2023/06/07 00:52:12;;;;;;;;;;;;;;;-140.72;100.00;52524.78;6245185;23;19915;-72
2023/06/07 00:54:38;;;;;;;;;;;;;;;-140.72;100.00;52520.72;6219100;23;19939;-71
2023/06/07 00:57:04;;;;;;;;;;;;;;;-140.72;100.00;52518.69;6245419;23;19912;-71
2023/06/07 00:59:29;;;;;;;;;;;;;;;-140.72;100.00;52539.00;6218023;23;19911;-71
2023/06/07 01:01:55;;;;;;;;;;;;;;;-140.72;100.00;52484.19;6245290;23;19988;-71
2023/06/07 01:04:21;;;;;;;;;;;;;;;-140.72;100.00;52520.72;6244894;23;19919;-71
2023/06/07 01:06:49;;;;;;;;;;;;;;;-140.72;100.00;52520.72;6244919;23;19935;-71
2023/06/07 01:09:16;;;;;;;;;;;;;;;-140.72;100.00;52516.66;6244175;23;19947;-71
2023/06/07 01:11:42;;;;;;;;;;;;;;;-140.72;100.00;52541.03;6245182;23;20338;-71
2023/06/07 01:14:19;;;;;;;;;;;;;;;-140.72;100.00;52516.66;6244358;23;20239;-71
2023/06/07 01:16:48;;;;;;;;;;;;;;;-140.72;100.00;52532.91;6244579;23;19994;-72
2023/06/07 01:19:18;;;;;;;;;;;;;;;-140.72;100.00;52532.91;6245521;23;19912;-71
2023/06/07 01:21:44;;;;;;;;;;;;;;;-140.72;100.00;52520.72;6244838;23;20277;-72
2023/06/07 01:24:10;;;;;;;;;;;;;;;-140.72;100.00;52549.13;6217935;23;19915;-71
2023/06/07 01:26:36;;;;;;;;;;;;;;;-140.72;100.00;52557.25;6244957;23;19942;-71
2023/06/07 01:29:05;;;;;;;;;;;;;;;-140.72;100.00;52536.97;6244932;23;19916;-71
2023/06/07 01:31:32;;;;;;;;;;;;;;;-140.72;100.00;52532.91;6245313;23;19912;-71
2023/06/07 01:33:58;;;;;;;;;;;;;;;-140.72;100.00;52543.03;6244657;23;19911;-71
2023/06/07 01:36:24;;;;;;;;;;;;;;;-140.72;100.00;52575.50;6244249;23;19973;-71
2023/06/07 01:38:50;;;;;;;;;;;;;;;-140.72;100.00;52524.78;6244156;23;19939;-72
2023/06/07 01:41:15;;;;;;;;;;;;;;;-140.72;100.00;52532.91;6243541;23;20294;-71
2023/06/07 01:43:41;;;;;;;;;;;;;;;-140.72;100.00;52530.88;6243067;22;19918;-71
2023/06/07 01:46:06;;;;;;;;;;;;;;;-140.72;100.00;52524.78;6216871;23;19963;-71
2023/06/07 01:48:32;;;;;;;;;;;;;;;-140.72;100.00;52575.50;6244888;23;20334;-71
2023/06/07 01:50:57;;;;;;;;;;;;;;;-140.72;100.00;52545.06;6244873;23;19912;-71
2023/06/07 01:53:22;;;;;;;;;;;;;;;-140.72;100.00;52541.03;6244274;23;19985;-71
2023/06/07 01:55:53;;;;;;;;;;;;;;;-140.72;100.00;52524.78;6243960;23;19912;-71
2023/06/07 01:58:28;;;;;;;;;;;;;;;-140.72;100.00;52549.13;6244740;23;20021;-71
2023/06/07 02:01:14;;;;;;;;;;;;;;;-140.72;100.00;52573.50;6245045;23;19943;-72
2023/06/07 02:03:41;;;;;;;;;;;;;;;-140.72;100.00;52514.63;6244717;23;19991;-72
2023/06/07 02:06:08;;;;;;;;;;;;;;;-140.72;100.00;52545.06;6244832;23;20243;-72
2023/06/07 02:08:36;;;;;;;;;;;;;;;-140.72;100.00;52536.97;6244592;23;19912;-72
2023/06/07 02:11:02;;;;;;;;;;;;;;;-140.72;100.00;52581.59;6244715;23;20320;-71
2023/06/07 02:13:29;;;;;;;;;;;;;;;-140.72;100.00;52524.78;6244057;23;19911;-71
2023/06/07 02:15:55;;;;;;;;;;;;;;;-140.72;100.00;52583.63;6244559;23;19922;-71
2023/06/07 02:18:20;;;;;;;;;;;;;;;-140.72;100.00;52514.63;6244485;23;19982;-71
2023/06/07 02:20:45;;;;;;;;;;;;;;;-140.72;100.00;52559.28;6243949;23;19921;-71
2023/06/07 02:23:10;;;;;;;;;;;;;;;-140.72;100.00;52589.72;6244670;23;20265;-72
2023/06/07 02:25:36;;;;;;;;;;;;;;;-140.72;100.00;52549.13;6243414;23;19934;-72
2023/06/07 02:28:02;;;;;;;;;;;;;;;-140.72;100.00;52563.34;6243987;23;19942;-71
2023/06/07 02:30:27;;;;;;;;;;;;;;;-140.72;100.00;52561.31;6243356;23;19912;-72
2023/06/07 02:32:53;;;;;;;;;;;;;;;-140.72;100.00;52557.25;6243115;23;19911;-71
2023/06/07 02:35:21;;;;;;;;;;;;;;;-140.72;100.00;52563.34;6216619;23;19919;-71
2023/06/07 02:37:46;;;;;;;;;;;;;;;-140.72;100.00;52565.38;6244418;23;19911;-71
2023/06/07 02:40:13;;;;;;;;;;;;;;;-140.72;100.00;52557.25;6243695;23;19915;-71
2023/06/07 02:42:53;;;;;;;;;;;;;;;-140.72;100.00;52575.50;6243553;22;20400;-71
2023/06/07 02:45:18;;;;;;;;;;;;;;;-140.72;100.00;52593.78;6216869;23;20669;-71
2023/06/07 02:47:45;;;;;;;;;;;;;;;-140.72;100.00;52595.81;6244327;23;19922;-71
2023/06/07 02:50:10;;;;;;;;;;;;;;;-140.72;100.00;52561.31;6243991;23;19986;-71
2023/06/07 02:52:36;;;;;;;;;;;;;;;-140.72;100.00;52569.44;6243382;23;20045;-71
2023/06/07 02:55:02;;;;;;;;;;;;;;;-140.72;100.00;52581.59;6216965;23;20046;-71
2023/06/07 02:57:27;;;;;;;;;;;;;;;-140.72;100.00;52565.38;6244399;23;19918;-72
2023/06/07 02:59:53;;;;;;;;;;;;;;;-140.72;100.00;52565.38;6244097;23;19922;-71
2023/06/07 03:02:18;;;;;;;;;;;;;;;-140.72;100.00;52569.44;6243697;23;19912;-71
2023/06/07 03:04:44;;;;;;;;;;;;;;;-140.72;100.00;52528.84;6243350;23;19950;-71
2023/06/07 03:07:09;;;;;;;;;;;;;;;-140.72;100.00;52569.44;6243602;23;20025;-71
2023/06/07 03:09:35;;;;;;;;;;;;;;;-140.72;100.00;52557.25;6243611;23;19918;-71
2023/06/07 03:12:00;;;;;;;;;;;;;;;-140.72;100.00;52589.72;6243789;23;20335;-72
2023/06/07 03:14:25;;;;;;;;;;;;;;;-140.72;100.00;52547.09;6244097;23;19922;-71
2023/06/07 03:16:52;;;;;;;;;;;;;;;-140.72;100.00;52565.38;6216701;23;20015;-71
2023/06/07 03:19:17;;;;;;;;;;;;;;;-140.72;100.00;52534.94;6244477;23;19911;-71
2023/06/07 03:21:44;;;;;;;;;;;;;;;-140.72;100.00;52522.75;6243705;23;19919;-71
2023/06/07 03:24:10;;;;;;;;;;;;;;;-140.72;100.00;52577.53;6244203;23;20022;-71
2023/06/07 03:26:36;;;;;;;;;;;;;;;-140.72;100.00;52561.31;6244047;23;20227;-71
2023/06/07 03:29:01;;;;;;;;;;;;;;;-140.72;100.00;52549.13;6243552;23;19918;-71
2023/06/07 03:31:28;;;;;;;;;;;;;;;-140.72;100.00;52536.97;6243777;23;20013;-71
2023/06/07 03:33:53;;;;;;;;;;;;;;;-140.72;100.00;52567.41;6244511;23;19938;-71
2023/06/07 03:36:20;;;;;;;;;;;;;;;-140.72;100.00;52583.63;6216367;23;19915;-72
2023/06/07 03:38:45;;;;;;;;;;;;;;;-140.72;100.00;52551.16;6244727;23;19923;-71
2023/06/07 03:41:11;;;;;;;;;;;;;;;-140.72;100.00;52557.25;6244698;23;19911;-71
2023/06/07 03:43:36;;;;;;;;;;;;;;;-140.72;100.00;52559.28;6243930;22;19911;-71
2023/06/07 03:46:01;;;;;;;;;;;;;;;-140.72;100.00;52561.31;6244288;23;19987;-71
2023/06/07 03:48:26;;;;;;;;;;;;;;;-140.72;100.00;52547.09;6243235;23;19919;-72
2023/06/07 03:50:51;;;;;;;;;;;;;;;-140.72;100.00;52549.13;6243717;23;19919;-71
2023/06/07 03:53:17;;;;;;;;;;;;;;;-140.72;100.00;52526.81;6216152;23;19919;-71
2023/06/07 03:55:42;;;;;;;;;;;;;;;-140.72;100.00;52567.41;6243775;23;19912;-71
2023/06/07 03:58:08;;;;;;;;;;;;;;;-140.72;100.00;52565.38;6216649;23;19967;-71
2023/06/07 04:00:34;;;;;;;;;;;;;;;-140.72;100.00;52567.41;6244074;23;19939;-71
2023/06/07 04:02:59;;;;;;;;;;;;;;;-140.72;100.00;52573.50;6242909;23;20006;-71
2023/06/07 04:05:25;;;;;;;;;;;;;;;-140.72;100.00;52565.38;6243980;23;19987;-71
2023/06/07 04:07:50;;;;;;;;;;;;;;;-140.72;100.00;52587.69;6217864;23;20320;-71
2023/06/07 04:10:15;;;;;;;;;;;;;;;-140.72;100.00;52567.41;6245433;23;19912;-71
2023/06/07 04:12:41;;;;;;;;;;;;;;;-140.72;100.00;52565.38;6245258;23;19989;-71
2023/06/07 04:15:07;;;;;;;;;;;;;;;-140.72;100.00;52549.13;6217684;23;19916;-71
2023/06/07 04:17:32;;;;;;;;;;;;;;;-140.72;100.00;52534.94;6244337;23;19926;-71
2023/06/07 04:19:57;;;;;;;;;;;;;;;-140.72;100.00;52561.31;6244661;23;20007;-71
2023/06/07 04:22:22;;;;;;;;;;;;;;;-140.72;100.00;52591.75;6217965;23;19999;-71
2023/06/07 04:24:48;;;;;;;;;;;;;;;-140.72;100.00;52559.28;6217977;23;19986;-71
2023/06/07 04:27:17;;;;;;;;;;;;;;;-140.72;100.00;52534.94;6245232;23;19990;-71
2023/06/07 04:29:43;;;;;;;;;;;;;;;-140.72;100.00;52522.75;6245100;23;19973;-71
2023/06/07 04:32:09;;;;;;;;;;;;;;;-140.72;100.00;52539.00;6245307;23;20339;-71
2023/06/07 04:34:40;;;;;;;;;;;;;;;-140.72;100.00;52545.06;6217907;23;19916;-72
2023/06/07 04:37:05;;;;;;;;;;;;;;;-140.72;100.00;52549.13;6245481;23;19912;-71
2023/06/07 04:39:31;;;;;;;;;;;;;;;-140.72;100.00;52543.03;6245130;23;19911;-72
2023/06/07 04:41:57;;;;;;;;;;;;;;;-140.72;100.00;52539.00;6245199;22;19912;-72
2023/06/07 04:44:28;;;;;;;;;;;;;;;-140.72;100.00;52534.94;6245121;23;19950;-72
2023/06/07 04:46:56;;;;;;;;;;;;;;;-140.72;100.00;52539.00;6218430;23;19916;-72
2023/06/07 04:49:21;;;;;;;;;;;;;;;-140.72;100.00;52526.81;6218245;23;19934;-72
2023/06/07 04:51:48;;;;;;;;;;;;;;;-140.72;100.00;52482.16;6246018;23;20327;-72
2023/06/07 04:54:16;;;;;;;;;;;;;;;-140.72;100.00;52506.53;6220736;23;19986;-75
2023/06/07 04:56:41;;;;;;;;;;;;;;;-140.72;100.00;52528.84;6247387;23;19990;-74
2023/06/07 04:59:08;;;;;;;;;;;;;;;-140.72;100.00;52520.72;6246464;23;19952;-74
2023/06/07 05:01:50;;;;;;;;;;;;;;;-140.72;100.00;52541.03;6218546;23;19942;-74
2023/06/07 05:04:16;;;;;;;;;;;;;;;-140.72;100.00;52490.28;6245251;23;19912;-75
2023/06/07 05:09:42;;;;;;;;;;;;;;;-140.72;100.00;52541.03;6245811;23;19919;-73
2023/06/07 05:12:07;;;;;;;;;;;;;;;-140.72;100.00;52524.78;6245352;23;20038;-73
2023/06/07 05:14:32;;;;;;;;;;;;;;;-140.72;100.00;52524.78;6244682;23;19915;-75
2023/06/07 05:16:59;;;;;;;;;;;;;;;-140.72;100.00;52484.19;6244200;23;19941;-73
2023/06/07 05:19:25;;;;;;;;;;;;;;;-140.72;100.00;52536.97;6217958;23;19912;-74
2023/06/07 05:21:51;;;;;;;;;;;;;;;-140.72;100.00;52516.66;6244948;23;19946;-74
2023/06/07 05:24:16;;;;;;;;;;;;;;;-140.72;100.00;52520.72;6244884;23;20220;-74
2023/06/07 05:26:42;;;;;;;;;;;;;;;-140.72;100.00;52530.88;6218635;23;19916;-76
2023/06/07 05:29:07;;;;;;;;;;;;;;;-140.72;100.00;52575.50;6218773;23;19919;-72
2023/06/07 05:31:33;;;;;;;;;;;;;;;-140.72;100.00;52496.38;6244963;23;19912;-73
2023/06/07 05:34:00;;;;;;;;;;;;;;;-140.72;100.00;52516.66;6245209;23;19994;-72
2023/06/07 05:36:27;;;;;;;;;;;;;;;-140.72;100.00;52504.50;6245462;23;19916;-73
2023/06/07 05:38:52;;;;;;;;;;;;;;;-140.72;100.00;52518.69;6246411;23;19994;-72
2023/06/07 05:41:18;;;;;;;;;;;;;;;-140.72;100.00;52472.03;6245228;23;20220;-73
2023/06/07 05:43:51;;;;;;;;;;;;;;;-140.72;100.00;52496.38;6244857;22;19911;-73
2023/06/07 05:46:16;;;;;;;;;;;;;;;-140.72;100.00;52484.19;6245345;23;19998;-72
2023/06/07 05:48:49;;;;;;;;;;;;;;;-140.72;100.00;52508.56;6244623;23;20001;-72
2023/06/07 05:51:14;;;;;;;;;;;;;;;-140.72;100.00;52484.19;6245472;23;19912;-73
2023/06/07 05:53:39;;;;;;;;;;;;;;;-140.72;100.00;52532.91;6218069;23;19934;-73
2023/06/07 05:56:05;;;;;;;;;;;;;;;-140.72;100.00;52514.63;6245135;23;19947;-73
2023/06/07 05:58:31;;;;;;;;;;;;;;;-140.72;100.00;52492.31;6244976;23;19911;-73
2023/06/07 06:00:56;;;;;;;;;;;;;;;-140.72;100.00;52500.44;6247277;23;19946;-72
2023/06/07 06:03:21;;;;;;;;;;;;;;;-140.72;100.00;52557.25;6247043;23;19916;-72
2023/06/07 06:05:47;;;;;;;;;;;;;;;-140.72;100.00;52506.53;6247825;23;19915;-73
2023/06/07 06:08:13;;;;;;;;;;;;;;;-140.72;100.00;52510.59;6246014;23;19962;-73
2023/06/07 06:10:38;;;;;;;;;;;;;;;-140.72;100.00;52526.81;6218353;23;19918;-72
2023/06/07 06:13:03;;;;;;;;;;;;;;;-140.72;100.00;52512.59;6244680;23;19911;-71
2023/06/07 06:15:29;;;;;;;;;;;;;;;-140.72;100.00;52518.69;6245561;23;19927;-71
2023/06/07 06:17:54;;;;;;;;;;;;;;;-140.72;100.00;52530.88;6245418;23;20014;-71
2023/06/07 06:20:20;;;;;;;;;;;;;;;-140.72;100.00;52524.78;6244463;23;19911;-71
2023/06/07 06:22:52;;;;;;;;;;;;;;;-140.72;100.00;52500.44;6218263;23;19918;-71
2023/06/07 06:25:17;;;;;;;;;;;;;;;-140.72;100.00;52508.56;6244155;23;19911;-70
2023/06/07 06:27:42;;;;;;;;;;;;;;;-140.72;100.00;52484.19;6244221;23;19934;-71
2023/06/07 06:30:08;;;;;;;;;;;;;;;-140.72;100.00;52472.03;6216291;23;20391;-71
2023/06/07 06:32:33;;;;;;;;;;;;;;;-140.72;100.00;52474.06;6217233;23;19912;-72
2023/06/07 06:34:59;;;;;;;;;;;;;;;-140.72;100.00;52449.72;6244289;23;19911;-71
2023/06/07 06:37:24;;;;;;;;;;;;;;;-140.72;100.00;52449.72;6244459;23;20315;-70
2023/06/07 06:39:51;;;;;;;;;;;;;;;-140.72;100.00;52427.38;6217394;23;19920;-70
2023/06/07 06:42:16;;;;;;;;;;;;;;;-140.72;100.00;52401.00;6217447;23;19994;-71
2023/06/07 06:44:45;;;;;;;;;;;;;;;-140.72;100.00;52453.75;6244612;23;19915;-74
2023/06/07 06:47:10;;;;;;;;;;;;;;;-140.72;100.00;52415.22;6243899;23;19912;-71
2023/06/07 06:49:35;;;;;;;;;;;;;;;-140.72;100.00;52433.47;6243858;23;20341;-74
2023/06/07 06:55:09;;;;;;;;;;;;;;;-140.72;53.13;52467.97;6245066;23;19997;-73
2023/06/07 06:57:35;;;;;;;;;;;;;;;-140.72;44.54;52423.31;6244453;23;19947;-74
2023/06/07 07:00:12;;;;;;;;;;;;;;;-140.72;50.35;52443.63;6218237;23;19911;-74
2023/06/07 07:02:37;;;;;;;;;;;;;;;-140.72;67.51;52463.91;6244509;23;19954;-77
2023/06/07 07:05:06;;;;;;;;;;;;;;;-140.72;75.37;52443.63;6217296;23;19912;-72
2023/06/07 07:07:33;;;;;;;;;;;;;;;-140.72;93.65;52478.13;6217643;23;19934;-72
2023/06/07 07:09:59;;;;;;;;;;;;;;;-140.72;100.00;52494.34;6243996;23;19915;-74
2023/06/07 07:12:24;;;;;;;;;;;;;;;-140.72;100.00;52465.94;6243881;23;19939;-74
2023/06/07 07:14:49;;;;;;;;;;;;;;;-140.72;100.00;52463.91;6243119;23;19934;-73
2023/06/07 07:17:15;;;;;;;;;;;;;;;-140.72;100.00;52413.19;6220883;23;19916;-78
2023/06/07 07:19:40;;;;;;;;;;;;;;;-140.72;100.00;52421.28;6226921;23;19965;-75
2023/06/07 07:22:05;;;;;;;;;;;;;;;-140.72;100.00;52453.75;6224546;23;19961;-77
2023/06/07 07:24:54;;;;;;;;;;;;;;;-140.72;100.00;52470.00;6225831;23;19931;-77
2023/06/07 07:27:22;;;;;;;;;;;;;;;-140.72;100.00;52470.00;6251460;23;19912;-77
2023/06/07 07:29:47;;;;;;;;;;;;;;;-140.72;100.00;52427.38;6221036;23;19927;-77
2023/06/07 07:32:12;;;;;;;;;;;;;;;-140.72;100.00;52415.22;6220151;23;19968;-77
2023/06/07 07:34:37;;;;;;;;;;;;;;;-140.72;99.66;52423.31;6248072;23;19961;-76
2023/06/07 07:37:04;;;;;;;;;;;;;;;-140.72;84.14;52415.22;6219763;23;19912;-76
2023/06/07 07:39:31;;;;;;;;;;;;;;;-140.72;67.30;52431.44;6221447;23;19911;-77
2023/06/07 07:41:56;;;;;;;;;;;;;;;-140.72;49.49;52380.72;6222571;22;20018;-76
2023/06/07 07:44:21;;;;;;;;;;;;;;;-140.72;29.27;52419.28;6246916;23;20327;-78
2023/06/07 07:46:58;;;;;;;;;;;;;;;-140.72;16.14;52431.44;6219439;23;19927;-77
2023/06/07 07:49:23;;;;;;;;;;;;;;;-140.72;16.32;52392.88;6219897;23;19912;-74
2023/06/07 07:51:48;;;;;;;;;;;;;;;-140.72;30.37;52439.56;6247102;23;19912;-75
2023/06/07 07:54:13;;;;;;;;;;;;;;;-140.72;47.41;52443.63;6246432;23;20286;-78
2023/06/07 07:56:47;;;;;;;;;;;;;;;-140.72;49.56;52390.84;6220407;23;20300;-75
2023/06/07 07:59:12;;;;;;;;;;;;;;;-140.72;26.34;52386.81;6246847;23;19923;-75
2023/06/07 08:01:38;;;;;;;;;;;;;;;-140.72;10.05;52407.09;6247147;23;19922;-76
2023/06/07 08:07:06;;;;;;;;;;;;;;;-140.72;0.00;52350.28;6246222;23;19930;-75
2023/06/07 08:09:31;;;;;;;;;;;;;;;-140.72;0.00;52352.31;6246275;23;20362;-75
2023/06/07 08:11:56;;;;;;;;;;;;;;;-140.72;0.00;52378.69;6219141;23;19912;-75
2023/06/07 08:14:21;;;;;;;;;;;;;;;-140.72;0.00;52356.38;6218765;23;19934;-75
2023/06/07 08:16:48;;;;;;;;;;;;;;;-140.72;0.00;52358.41;6245250;23;19926;-76
2023/06/07 08:19:13;;;;;;;;;;;;;;;-140.72;0.00;52360.44;6218907;23;20224;-75
2023/06/07 08:21:59;;;;;;;;;;;;;;;-140.72;0.00;52319.84;6245957;23;19942;-75
2023/06/07 08:24:24;;;;;;;;;;;;;;;-140.72;0.00;52336.06;6246242;23;19942;-76
2023/06/07 08:26:49;;;;;;;;;;;;;;;-140.72;0.00;52336.06;6246103;23;19911;-75
2023/06/07 08:29:15;;;;;;;;;;;;;;;-140.72;0.00;52346.22;6245758;23;19911;-75
2023/06/07 08:31:43;;;;;;;;;;;;;;;-140.72;0.00;52332.03;6218887;23;20016;-74
2023/06/07 08:34:08;;;;;;;;;;;;;;;-140.72;0.00;52330.00;6218592;23;19911;-75
2023/06/07 08:36:33;;;;;;;;;;;;;;;-140.72;0.00;52305.63;6218955;23;19918;-76
2023/06/07 08:38:58;;;;;;;;;;;;;;;-140.72;0.00;52342.16;6246067;23;19989;-75
2023/06/07 08:41:23;;;;;;;;;;;;;;;-140.72;0.00;52293.47;6220122;23;19911;-75
2023/06/07 08:43:49;;;;;;;;;;;;;;;-140.72;0.00;52309.69;6219129;23;20220;-75
2023/06/07 08:46:15;;;;;;;;;;;;;;;-140.72;0.00;52321.88;6246133;23;20004;-75
2023/06/07 08:48:41;;;;;;;;;;;;;;;-140.72;0.00;52309.69;6245871;23;20231;-75
2023/06/07 08:51:07;;;;;;;;;;;;;;;-140.72;0.00;52269.13;6245686;23;19935;-76
2023/06/07 08:53:40;;;;;;;;;;;;;;;-140.72;0.00;52313.75;6218772;23;19935;-75
2023/06/07 08:56:06;;;;;;;;;;;;;;;-140.72;0.00;52295.50;6246034;23;19912;-75
2023/06/07 08:58:32;;;;;;;;;;;;;;;-140.72;0.00;52323.91;6220135;23;19985;-74
2023/06/07 09:00:59;;;;;;;;;;;;;;;-140.72;0.00;52256.94;6219296;23;20342;-74
2023/06/07 09:03:25;;;;;;;;;;;;;;;-140.72;0.00;52273.19;6218268;23;20037;-74
2023/06/07 09:06:00;;;;;;;;;;;;;;;-140.72;0.00;52248.81;6245926;23;19911;-78
2023/06/07 09:08:25;;;;;;;;;;;;;;;-140.72;0.00;52261.00;6220084;23;19935;-75
2023/06/07 09:10:50;;;;;;;;;;;;;;;-140.72;0.00;52252.88;6247300;23;19912;-77
2023/06/07 09:13:21;;;;;;;;;;;;;;;-140.72;0.00;52210.28;6219308;23;20390;-73
2023/06/07 09:15:49;;;;;;;;;;;;;;;-140.72;0.00;52198.09;6247696;23;20294;-75
2023/06/07 09:18:15;;;;;;;;;;;;;;;-140.72;0.00;52216.34;6221553;23;20204;-74
2023/06/07 09:20:40;;;;;;;;;;;;;;;-140.72;0.00;52196.06;6218749;23;19962;-74
2023/06/07 09:23:13;;;;;;;;;;;;;;;-140.72;0.00;52192.00;6245744;23;19915;-74
2023/06/07 09:25:38;;;;;;;;;;;;;;;-140.72;0.00;52163.59;6219173;23;20387;-73
2023/06/07 09:28:09;;;;;;;;;;;;;;;-140.72;0.00;52171.72;6218427;23;19912;-73
2023/06/07 09:30:35;;;;;;;;;;;;;;;-140.72;0.00;52147.38;6245499;23;20359;-73
2023/06/07 09:33:00;;;;;;;;;;;;;;;-140.72;0.00;52151.44;6244464;23;19911;-74
2023/06/07 09:35:25;;;;;;;;;;;;;;;-140.72;0.00;52147.38;6245500;23;19911;-73
2023/06/07 09:37:51;;;;;;;;;;;;;;;-140.72;0.00;52139.25;6245649;23;19918;-74
2023/06/07 09:40:17;;;;;;;;;;;;;;;-140.72;0.00;52123.03;6218135;23;19919;-73
2023/06/07 09:42:43;;;;;;;;;;;;;;;-140.72;0.00;52135.19;6217455;23;19915;-73
2023/06/07 09:45:27;;;;;;;;;;;;;;;-140.72;0.00;52153.47;6218519;23;20011;-73
2023/06/07 09:48:04;;;;;;;;;;;;;;;-140.72;0.00;52165.63;6245522;23;19923;-73
2023/06/07 09:50:32;;;;;;;;;;;;;;;-140.72;0.00;52106.78;6244737;23;19994;-76
2023/06/07 09:52:58;;;;;;;;;;;;;;;-140.72;0.00;52133.16;6217175;23;20067;-78
2023/06/07 09:55:28;;;;;;;;;;;;;;;-140.72;0.00;52100.72;6218062;23;19919;-73
2023/06/07 09:57:53;;;;;;;;;;;;;;;-140.72;0.00;52086.50;6245145;23;19911;-73
2023/06/07 10:00:19;;;;;;;;;;;;;;;-140.72;0.00;52086.50;6244840;23;19949;-74
2023/06/07 10:02:46;;;;;;;;;;;;;;;-140.72;0.00;52070.28;6243110;23;19912;-73
2023/06/07 10:05:15;;;;;;;;;;;;;;;-140.72;0.00;52049.97;6244484;23;19911;-73
2023/06/07 10:07:44;;;;;;;;;;;;;;;-140.72;0.00;52041.88;6244500;23;19912;-75
2023/06/07 10:10:11;;;;;;;;;;;;;;;-140.72;0.00;52011.44;6218157;23;20336;-74
2023/06/07 10:12:40;;;;;;;;;;;;;;;-140.72;0.00;52019.56;6245447;23;19930;-75
2023/06/07 10:15:07;;;;;;;;;;;;;;;-140.72;0.00;51976.94;6245773;23;19912;-75
2023/06/07 10:17:35;;;;;;;;;;;;;;;-140.72;0.00;51981.00;6246339;23;20256;-75
2023/06/07 10:20:04;;;;;;;;;;;;;;;-140.72;0.00;51993.19;6220997;23;19918;-75
2023/06/07 10:22:32;;;;;;;;;;;;;;;-140.72;0.00;52003.31;6247689;23;19916;-74
2023/06/07 10:25:04;;;;;;;;;;;;;;;-140.72;0.00;52110.84;6218338;23;19987;-75
2023/06/07 10:27:33;;;;;;;;;;;;;;;-140.72;0.00;52054.03;6217428;23;20377;-74
2023/06/07 10:30:06;;;;;;;;;;;;;;;-140.72;0.00;52143.31;6217231;23;19945;-74
2023/06/07 10:32:34;;;;;;;;;;;;;;;-140.72;0.00;52100.72;6244751;23;19946;-74
2023/06/07 10:34:59;;;;;;;;;;;;;;;-140.72;0.00;52135.19;6244356;23;19911;-74
2023/06/07 10:37:30;;;;;;;;;;;;;;;-140.72;0.00;52019.56;6217420;23;20235;-75
2023/06/07 10:39:55;;;;;;;;;;;;;;;-140.72;0.00;52025.63;6217043;23;19912;-74
2023/06/07 10:42:21;;;;;;;;;;;;;;;-140.72;0.00;52019.56;6217504;23;19912;-74
2023/06/07 10:44:46;;;;;;;;;;;;;;;-140.72;0.00;52052.00;6243931;23;19911;-75
2023/06/07 10:47:24;;;;;;;;;;;;;;;-140.72;0.00;52025.63;6244230;23;19915;-74
2023/06/07 10:49:53;;;;;;;;;;;;;;;-140.72;0.00;51964.78;6217569;23;19915;-75
2023/06/07 10:52:19;;;;;;;;;;;;;;;-140.72;0.00;52013.47;6244767;23;20391;-75
2023/06/07 10:54:45;;;;;;;;;;;;;;;-140.72;0.00;51964.78;6218124;23;19923;-75
2023/06/07 10:57:10;;;;;;;;;;;;;;;-140.72;0.00;51928.25;6248073;23;19911;-75
2023/06/07 10:59:36;;;;;;;;;;;;;;;-140.72;0.00;51901.88;6219259;23;19916;-75
2023/06/07 11:02:26;;;;;;;;;;;;;;;-140.72;0.00;51905.94;6245660;23;19918;-75
2023/06/07 11:04:59;;;;;;;;;;;;;;;-140.72;0.00;51871.44;6217469;23;19998;-76
2023/06/07 11:07:30;;;;;;;;;;;;;;;-140.72;0.00;51849.13;6245523;23;19991;-74
2023/06/07 11:10:04;;;;;;;;;;;;;;;-140.72;0.00;51834.91;6217287;23;19912;-73
2023/06/07 11:12:35;;;;;;;;;;;;;;;-140.72;0.00;51875.50;6244336;23;19935;-72
2023/06/07 11:15:20;;;;;;;;;;;;;;;-140.72;0.00;51853.19;6246236;23;19920;-75
2023/06/07 11:18:03;;;;;;;;;;;;;;;-140.72;0.00;51810.56;6247747;23;19921;-72
2023/06/07 11:20:39;;;;;;;;;;;;;;;-140.72;0.00;51810.56;6220444;23;19912;-72
2023/06/07 11:23:17;;;;;;;;;;;;;;;-140.72;0.00;51761.88;6247415;23;19994;-73
2023/06/07 11:25:43;;;;;;;;;;;;;;;-140.72;0.00;51808.53;6247307;23;19922;-72
2023/06/07 11:28:10;;;;;;;;;;;;;;;-140.72;0.00;51820.72;6247625;23;19912;-72
2023/06/07 11:30:36;;;;;;;;;;;;;;;-140.72;0.00;51798.41;6247233;23;19926;-74
2023/06/07 11:33:03;;;;;;;;;;;;;;;-140.72;0.00;51774.06;6247301;23;20054;-72
2023/06/07 11:35:30;;;;;;;;;;;;;;;-140.72;0.00;51800.44;6246217;23;19911;-72
2023/06/07 11:37:55;;;;;;;;;;;;;;;-140.72;0.00;51796.38;6246371;23;19911;-73
2023/06/07 11:40:21;;;;;;;;;;;;;;;-140.72;0.00;51747.69;6246575;23;20380;-71
2023/06/07 11:42:46;;;;;;;;;;;;;;;-140.72;0.00;51729.44;6221115;23;19918;-72
2023/06/07 11:45:12;;;;;;;;;;;;;;;-140.72;0.00;51711.16;6248195;23;19915;-72
2023/06/07 11:47:38;;;;;;;;;;;;;;;-140.72;0.00;51717.25;6248176;23;19969;-73
2023/06/07 11:50:13;;;;;;;;;;;;;;;-140.72;0.00;51725.38;6220397;23;19916;-71
2023/06/07 11:52:48;;;;;;;;;;;;;;;-140.72;0.00;51717.25;6248658;23;19930;-73
2023/06/07 11:55:20;;;;;;;;;;;;;;;-140.72;0.00;51660.44;6247751;23;19930;-72
2023/06/07 11:57:53;;;;;;;;;;;;;;;-140.72;0.00;51664.50;6247859;23;20346;-72
2023/06/07 12:00:23;;;;;;;;;;;;;;;-140.72;0.00;51644.22;6248539;23;19936;-73
2023/06/07 12:02:48;;;;;;;;;;;;;;;-140.72;0.00;51670.59;6219748;23;19911;-72
2023/06/07 12:05:14;;;;;;;;;;;;;;;-140.72;0.00;51674.66;6247142;23;19918;-72
2023/06/07 12:07:40;;;;;;;;;;;;;;;-140.72;0.00;51636.09;6247357;23;20002;-74
2023/06/07 12:10:06;;;;;;;;;;;;;;;-140.72;0.00;51644.22;6220520;23;19919;-75
2023/06/07 12:12:31;;;;;;;;;;;;;;;-140.72;0.00;51638.13;6220283;23;20290;-74
2023/06/07 12:15:00;;;;;;;;;;;;;;;-140.72;0.00;51731.44;6220485;23;19916;-73
2023/06/07 12:17:29;;;;;;;;;;;;;;;-140.72;0.00;51761.88;6248685;23;19953;-73
2023/06/07 12:20:04;;;;;;;;;;;;;;;-140.72;0.00;51727.41;6248654;23;20342;-73
2023/06/07 12:22:42;;;;;;;;;;;;;;;-140.72;0.00;51696.97;6221004;23;19912;-73
2023/06/07 12:25:09;;;;;;;;;;;;;;;-140.72;0.00;51652.34;6246908;23;19913;-71
2023/06/07 12:27:36;;;;;;;;;;;;;;;-140.72;0.00;51682.75;6245663;23;19912;-71
2023/06/07 12:30:02;;;;;;;;;;;;;;;-140.72;0.00;51648.28;6218377;23;19911;-71
2023/06/07 12:32:27;;;;;;;;;;;;;;;-140.72;0.00;51711.16;6218460;23;19937;-71
2023/06/07 12:34:58;;;;;;;;;;;;;;;-140.72;0.00;51634.06;6218546;23;20320;-70